METAR Data
IDs: Format: Raw Decoded Include TAF

Data at: 0319 UTC 29 May 2022

LIMC 290250Z 03005KT 330V070 9999 -DZ BKN040 14/12 Q1009 NOSIG

TAF LIMC 282300Z 2900/3006 08012KT 9999 BKN040
  TEMPO 2900/2904 RA
  BECMG 2919/2921 VRB05KT


LIME 290250Z VRB02KT 9999 -RA SCT015 BKN030 14/12 Q1008 NOSIG

TAF LIME 282300Z 2900/2924 13010KT 9999 SCT040
  TEMPO 2900/2904 RA


LIMF 290250Z 03010KT 9999 SCT015 BKN025 15/12 Q1008

TAF LIMF 282300Z 2900/2924 05010KT 9999 BKN025
  BECMG 2904/2906 VRB05KT


No METAR found for LIMG
No TAF found for LIMG

LIMJ 290250Z 03008KT 9999 FEW015 SCT028 19/14 Q1004

TAF LIMJ 282300Z 2900/2924 02013KT 9999 SCT030
  TEMPO 2900/2904 TSRA
  TEMPO 2900/2913 02018G28KT


LIML 290250Z 12009KT 9999 -RA BKN045 14/11 Q1008 NOSIG

TAF LIML 282300Z 2900/2924 10012KT 9999 SCT020
  TEMPO 2900/2905 11015G25KT RA


No METAR found for LIMP

TAF LIMP 281700Z 2818/2918 09013KT 9999 BKN020
  TEMPO 2818/2904 4000 TSRA
  BECMG 2909/2911 09005KT


No METAR found for LIPA
No TAF found for LIPA

No METAR found for LIPB

TAF LIPB 281700Z 2818/2918 02008KT 9999 SCT060
  TEMPO 2818/2912 4000 SHRA


LIPC 290255Z 05007KT 9999 -RA SCT020 BKN030 17/17 Q1007 RMK OVC VIS MIN 9999 WIND THR11 04007KT WIND THR29 06008KT BLU

TAF LIPC 290200Z 2903/2912 07012KT 9999 SCT020 BKN050
  TEMPO 2903/2912 5000 TSRA FEW015CB SCT020
  PROB40
  TEMPO 2906/2912 32008KT


LIPH 290250Z AUTO 02004KT 350V050 9999 OVC082/// 15/10 Q1009

TAF LIPH 282300Z 2900/2924 05012KT 9999 BKN080
  TEMPO 2900/2903 4000 TSRA
  TEMPO 2900/2914 05015G25KT


LIPI 290255Z 04014KT 9999 BKN100 15/08 Q1009 RMK BKN VIS MIN 9999 WIND THR06 08014KT WIND THR24 08015KT BLU
No TAF found for LIPI

No METAR found for LIPK
No TAF found for LIPK

LIPL 290255Z 09017KT 9999 BKN060 17/12 Q1007 RMK BKN VIS MIN 9999 WIND THR31 09016KT WIND THR13 09016KT BLU

TAF LIPL 290200Z 2903/2912 11012KT 9999 FEW040 SCT060
  TEMPO 2903/2906 11020G30KT 4000 TSRA FEW020CB BKN030


LIPO 290250Z AUTO 07017KT 9999 BKN061/// 16/08 Q1008

TAF LIPO 282300Z 2900/2924 10014KT 9999 SCT040
  TEMPO 2900/2905 10015G25KT RA


LIPQ 290250Z AUTO 08015G25KT 040V110 9999 OVC100/// 16/06 Q1008

TAF LIPQ 282300Z 2900/2924 05013KT 9999 BKN080
  TEMPO 2900/2903 4000 TSRA
  TEMPO 2909/2917 RA
  BECMG 2921/2923 VRB05KT


LIPR 290250Z AUTO 05009KT 9999 SCT016/// SCT052/// BKN100/// 17/14 Q1006

TAF LIPR 282300Z 2900/2924 08011KT 9999 BKN020
  TEMPO 2900/2912 4000 SHRA
  BECMG 2915/2917 29006KT


LIPZ 290250Z 04011KT CAVOK 15/09 Q1009 NOSIG

TAF LIPZ 282300Z 2900/3006 05016KT 9999 BKN070
  TEMPO 2900/2903 4000 TSRA
  TEMPO 2900/2918 05017G27KT
  PROB30
  TEMPO 2906/2909 RA


LIRP 290245Z 12014KT CAVOK 19/16 Q1002 NOSIG

TAF LIRP 282300Z 2900/2924 10008KT 9999 FEW050
  PROB30 2900/2909 11015KT 5000 TSRA FEW030CB SCT040
  BECMG 2909/2911 27008KT
  BECMG 2917/2919 11008KT


LFKB 290300Z AUTO 34008KT 9999 SCT022 SCT027 BKN035 22/19 Q1002 NOSIG

TAF LFKB 290200Z 2903/3003 33006KT 9999 SCT020 TX27/2912Z TN16/3003Z
  BECMG 2907/2909 03010KT
  BECMG 2920/2922 22004KT


LFKC 290300Z AUTO 18005KT 9999 FEW025 18/16 Q1002 NOSIG

TAF LFKC 290200Z 2903/3003 17004KT 9999 SCT025 TX27/2912Z TN16/3003Z
  BECMG 2907/2909 36010KT
  BECMG 2919/2921 18006KT


LFKJ 290300Z AUTO VRB02KT CAVOK 16/14 Q1002 NOSIG

TAF LFKJ 290200Z 2903/3003 05004KT CAVOK
  BECMG 2907/2909 23010KT
  BECMG 2919/2921 05004KT
  TEMPO 2921/3003 BKN012


LFLL 290300Z 34008KT CAVOK 11/04 Q1011 NOSIG

TAF LFLL 282300Z 2900/3006 34008KT CAVOK
  TEMPO 2908/2916 35015G25KT


LFML 290300Z AUTO 33016KT CAVOK 18/05 Q1005 TEMPO 33015G25KT

TAF LFML 290200Z 2903/3009 33025G35KT CAVOK TX27/2915Z TN14/3004Z
  BECMG 2903/2904 33015G25KT
  TEMPO 2904/2910 36008KT
  BECMG 2917/2919 31012KT
  BECMG 2921/2923 VRB03KT


LFMN 290300Z 33005KT 230V020 9999 FEW040 21/13 Q1002 WS ALL RWY TEMPO 09010KT BKN010

TAF AMD LFMN 290313Z 2903/3009 34010KT CAVOK
  TEMPO 2903/2906 09015KT BKN010
  BECMG 2907/2909 20012KT
  TEMPO 2913/2924 BKN025
  PROB30
  TEMPO 2914/2916 SHRA FEW030TCU BKN060
  BECMG 2918/2920 VRB05KT
  TEMPO 3000/3006 34010KT


LOWI 290250Z AUTO 10006KT 9999 FEW060 SCT090 BKN100 09/05 Q1012

TAF LOWI 282315Z 2900/2924 VRB03KT 9999 FEW030 BKN060 TX16/2914Z TN09/2904Z
  TEMPO 2904/2910 27005KT -RA
  TEMPO 2910/2918 VRB12KT SHRA SCT030TCU BKN050


LOWL 290250Z AUTO VRB01KT 9999 FEW080 06/05 Q1013

TAF LOWL 282315Z 2900/2924 VRB03KT 9999 FEW050 SCT080 TX16/2915Z TN07/2903Z
  TEMPO 2911/2920 -SHRA
  PROB30
  TEMPO 2916/2920 SHRA SCT040 FEW040CB


LOWW 290250Z 17004KT CAVOK 08/06 Q1013 NOSIG

TAF LOWW 290215Z 2903/3009 VRB03KT CAVOK TX15/2911Z TN07/3003Z
  TEMPO 2908/2912 12007KT
  TEMPO 2913/2920 32007KT -RA


LSGG 290250Z AUTO VRB01KT 9999 NCD 10/03 Q1011 NOSIG

TAF LSGG 290225Z 2903/3009 03004KT CAVOK TX19/2915Z TN09/2905Z TN08/3005Z
  BECMG 2907/2910 04015KT 9999 FEW040
  BECMG 2918/2920 VRB02KT


LSZH 290250Z AUTO 35005KT 9999 FEW070 08/03 Q1012 NOSIG

TAF LSZH 290225Z 2903/3009 33006KT CAVOK TX16/2915Z TN06/2904Z TN06/3004Z
  BECMG 2907/2909 03006KT 9999 FEW040 SCT070
  PROB40
  TEMPO 2910/2916 02012G25KT SHRA SCT050TCU
  BECMG 2917/2920 CAVOK
  BECMG 2921/2924 33004KT
  BECMG 3007/3009 04006KT